Aérodrome :
LOGIN :

S'inscrire | Disclaimer

   EN    FR    IT 

 










Légende :    VFR   VFR Marginal   IFR   IFR Intensif   IFR Très Intensif
Visi : 
Plafond : 
>= 8 km
>= 3000ft
5 à 8 km
1000 à 3000 ft
1500m à 5 km
500 à 1000 ft
800 à 1500m
200 à 500 ft
< 800m
< 200 ft
Symboles :   Orages  Brouillard  Fortes neiges  Fortes précipitations  Vent > 20 kt
SIGMETs :   Divers  Orages  Givrage  Turbulence  Onde Orograph.  Cendres Volcan.







- Altitude de l'aérodrome : 41 ft


LIRE - Pratica di Mare Air Base Pomezia

DERNIER METAR :
  • 230555Z 09010KT 9999 SCT020 05/03 Q0999 RMK SCT VIS MIN 9999 WIND THR13 10009KT WIND THR31 /////KT BLU

METARs EXPIRÉS :
  • 230455Z 07006KT 7000 -RA SCT020 BKN040 05/03 Q0999 RMK BKN VIS MIN 7000 WIND THR13 09007KT WIND THR31 /////KT WHT
  • 230355Z 07007KT 9999 SCT020 BKN040 05/04 Q1000 RMK OVC VIS MIN 9999 WIND THR13 36007KT WIND THR31 /////KT BLU

TAF TAF LIRE
Valide du 23 à 06h jusqu'au 23 à 15h UTC


230500Z 2306/2315 07008KT 8000 SCT020 BKN040
TEMPO 2306/2310 5000 RA
BECMG 2308/2310 15012KT
TEMPO 2312/2315 4000 SHRA FEW018TCU BKN030
Pas de NOTAMs connus pour ce terrain.



MET'MAP, la Météo Aéronautique d'un coup d'oeil ! - Copyright ORBIFLY Décembre 2007 - Disclaimer

ORBIFLY MET'MAP TEAM :

Programmation & Développement : Alexandra Zaïnal
Conception & Développement : Baudouin d'Aumeries
Co-Programmation & Développement : Marc-Olivier Méhu
Soutien technique & logistique : Manuel Goepfert

Contact : metmap@orbifly.com




SOURCES & CREDITS :

   NOAA